Time;durP1;ratioP1;P1;durP2;ratioP2;P2;SDS_P1;SDS_P2;PMS_P1;PMS_P2;Temp;Humidity;BMP_temperature;BMP_pressure;BME280_temperature;BME280_humidity;BME280_pressure;Samples;Min_cycle;Max_cycle;Signal;HPM_P1;HPM_P2
2023/03/08 00:01:41;;;;;;;4.88;1.80;;;0.70;99.90;;;;;;5060608;28;20056;-88
2023/03/08 00:04:08;;;;;;;9.13;2.13;;;0.70;99.90;;;;;;5058206;28;20024;-86
2023/03/08 00:06:34;;;;;;;3.17;1.70;;;0.70;99.90;;;;;;5058897;28;20033;-86
2023/03/08 00:09:00;;;;;;;4.75;2.10;;;0.70;99.90;;;;;;5060311;28;20419;-83
2023/03/08 00:11:27;;;;;;;21.63;3.78;;;0.70;99.90;;;;;;5055622;28;20029;-82
2023/03/08 00:13:54;;;;;;;2.78;2.00;;;0.60;99.90;;;;;;5056475;28;20389;-81
2023/03/08 00:16:20;;;;;;;7.82;2.33;;;0.60;99.90;;;;;;5058427;28;20028;-85
2023/03/08 00:18:46;;;;;;;3.90;1.95;;;0.70;99.90;;;;;;5056722;28;20032;-86
2023/03/08 00:21:14;;;;;;;3.70;2.65;;;0.50;99.90;;;;;;5058034;28;20473;-84
2023/03/08 00:23:40;;;;;;;6.53;2.42;;;0.70;99.90;;;;;;5057914;28;20493;-84
2023/03/08 00:26:07;;;;;;;3.05;2.22;;;0.60;99.90;;;;;;5055800;28;20389;-87
2023/03/08 00:28:32;;;;;;;3.30;2.20;;;0.70;99.90;;;;;;5061046;28;20021;-83
2023/03/08 00:31:01;;;;;;;2.53;2.30;;;0.60;99.90;;;;;;5056414;28;20039;-94
2023/03/08 00:33:27;;;;;;;3.38;2.60;;;0.60;99.90;;;;;;5056831;28;20033;-79
2023/03/08 00:35:57;;;;;;;6.00;2.45;;;0.60;99.90;;;;;;5058173;28;20029;-87
2023/03/08 00:38:23;;;;;;;4.03;2.60;;;0.60;99.90;;;;;;5057146;28;20530;-85
2023/03/08 00:40:51;;;;;;;3.28;2.97;;;0.60;99.90;;;;;;5056304;28;20032;-89
2023/03/08 00:43:17;;;;;;;4.50;3.25;;;0.60;99.90;;;;;;5057591;28;20114;-82
2023/03/08 00:45:43;;;;;;;9.40;3.00;;;0.60;99.90;;;;;;5055735;28;20056;-84
2023/03/08 00:48:09;;;;;;;3.13;2.83;;;0.50;99.90;;;;;;5056268;28;20098;-83
2023/03/08 00:50:34;;;;;;;2.92;2.67;;;0.60;99.90;;;;;;5062488;28;20028;-84
2023/03/08 00:53:00;;;;;;;5.18;3.20;;;0.50;99.90;;;;;;5054147;28;20102;-81
2023/03/08 00:55:25;;;;;;;8.32;3.35;;;0.50;99.90;;;;;;5065045;28;20396;-83
2023/03/08 00:57:51;;;;;;;8.75;3.88;;;0.50;99.90;;;;;;5067208;28;20033;-83
2023/03/08 01:00:17;;;;;;;4.88;3.35;;;0.60;99.90;;;;;;5074042;28;20024;-82
2023/03/08 01:02:42;;;;;;;6.68;3.40;;;0.50;99.90;;;;;;5060564;28;20040;-81
2023/03/08 01:05:12;;;;;;;7.00;3.85;;;0.50;99.90;;;;;;5060640;28;20048;-89
2023/03/08 01:07:38;;;;;;;5.85;3.38;;;0.50;99.90;;;;;;5052791;28;20461;-82
2023/03/08 01:10:04;;;;;;;7.63;3.33;;;0.50;99.90;;;;;;5050448;28;20326;-82
2023/03/08 01:12:32;;;;;;;7.20;4.07;;;0.50;99.90;;;;;;5053586;28;20033;-82
2023/03/08 01:14:57;;;;;;;5.65;3.75;;;0.50;99.90;;;;;;5053893;28;20031;-80
2023/03/08 01:17:23;;;;;;;4.97;3.20;;;0.50;99.90;;;;;;5075647;28;20040;-90
2023/03/08 01:19:49;;;;;;;7.30;3.78;;;0.50;99.90;;;;;;5068016;28;20056;-82
2023/03/08 01:22:15;;;;;;;8.18;4.05;;;0.50;99.90;;;;;;5065235;28;20492;-83
2023/03/08 01:24:58;;;;;;;6.88;3.75;;;0.50;99.90;;;;;;5054633;28;20044;-85
2023/03/08 01:27:23;;;;;;;5.18;4.00;;;0.60;99.90;;;;;;5052107;28;20394;-81
2023/03/08 01:29:49;;;;;;;9.00;4.28;;;0.60;99.90;;;;;;5052875;28;20121;-85
2023/03/08 01:32:14;;;;;;;5.75;3.72;;;0.60;99.90;;;;;;5051981;28;20024;-82
2023/03/08 01:34:40;;;;;;;8.85;5.43;;;0.60;99.90;;;;;;5051698;28;20094;-85
2023/03/08 01:37:06;;;;;;;9.77;4.43;;;0.60;99.90;;;;;;5049393;28;20417;-83
2023/03/08 01:39:31;;;;;;;6.30;4.40;;;0.60;99.90;;;;;;5050541;28;20350;-82
2023/03/08 01:41:57;;;;;;;7.68;5.38;;;0.50;99.90;;;;;;5052100;28;20048;-82
2023/03/08 01:44:22;;;;;;;5.97;4.32;;;0.60;99.90;;;;;;5051318;28;20120;-82
2023/03/08 01:46:49;;;;;;;5.65;4.30;;;0.60;99.90;;;;;;5053988;28;20378;-86
2023/03/08 01:49:25;;;;;;;7.25;4.47;;;0.60;99.90;;;;;;5056669;28;20024;-80
2023/03/08 01:52:05;;;;;;;6.38;4.35;;;0.60;99.90;;;;;;5052256;28;20043;-84
2023/03/08 01:54:45;;;;;;;6.20;3.85;;;0.60;99.90;;;;;;5065923;28;20536;-81
2023/03/08 01:57:24;;;;;;;8.55;4.93;;;0.60;99.90;;;;;;5068995;28;20485;-79
2023/03/08 01:59:52;;;;;;;9.10;5.00;;;0.60;99.90;;;;;;5060207;28;20037;-80
2023/03/08 02:02:22;;;;;;;9.77;5.47;;;0.70;99.90;;;;;;5052739;28;20072;-82
2023/03/08 02:04:48;;;;;;;9.00;4.88;;;0.70;99.90;;;;;;5055927;28;20389;-82
2023/03/08 02:07:16;;;;;;;6.95;5.18;;;0.70;99.90;;;;;;5051055;28;20063;-88
2023/03/08 02:09:42;;;;;;;13.07;5.35;;;0.70;99.90;;;;;;5051002;28;20056;-78
2023/03/08 02:12:11;;;;;;;18.25;5.32;;;0.70;99.90;;;;;;5052307;28;20033;-82
2023/03/08 02:14:37;;;;;;;7.30;4.68;;;0.70;99.90;;;;;;5053993;28;20063;-84
2023/03/08 02:17:02;;;;;;;6.40;5.07;;;0.70;99.90;;;;;;5052554;28;20202;-80
2023/03/08 02:19:40;;;;;;;8.63;5.07;;;0.70;99.90;;;;;;5050773;28;20029;-87
2023/03/08 02:22:10;;;;;;;12.40;5.68;;;0.70;99.90;;;;;;5054159;28;20036;-83
2023/03/08 02:24:36;;;;;;;5.70;4.97;;;0.70;99.90;;;;;;5052061;28;20461;-83
2023/03/08 02:27:06;;;;;;;9.80;5.43;;;0.70;99.90;;;;;;5052303;28;20039;-81
2023/03/08 02:29:31;;;;;;;13.07;4.95;;;0.60;99.90;;;;;;5051563;28;20032;-82
2023/03/08 02:31:57;;;;;;;6.85;5.10;;;0.60;99.90;;;;;;5057124;28;20033;-80
2023/03/08 02:34:23;;;;;;;7.70;5.35;;;0.60;99.90;;;;;;5073689;28;20356;-81
2023/03/08 02:36:48;;;;;;;6.40;4.75;;;0.60;99.90;;;;;;5066020;28;20042;-80
2023/03/08 02:39:14;;;;;;;10.68;5.43;;;0.50;99.90;;;;;;5048474;28;20533;-84
2023/03/08 02:41:39;;;;;;;10.40;5.15;;;0.50;99.90;;;;;;5073333;28;20761;-82
2023/03/08 02:44:05;;;;;;;10.90;5.13;;;0.40;99.90;;;;;;5066984;28;20040;-85
2023/03/08 02:46:31;;;;;;;8.05;5.13;;;0.50;99.90;;;;;;5069122;28;20036;-82
2023/03/08 02:48:56;;;;;;;12.13;5.32;;;0.50;99.90;;;;;;5058210;28;21360;-80
2023/03/08 02:51:22;;;;;;;8.85;5.45;;;0.40;99.90;;;;;;5068950;28;20071;-86
2023/03/08 02:53:47;;;;;;;15.77;5.32;;;0.40;99.90;;;;;;5069696;28;20031;-81
2023/03/08 02:56:13;;;;;;;14.55;5.20;;;0.40;99.90;;;;;;5067300;28;20028;-80
2023/03/08 02:58:38;;;;;;;9.50;4.88;;;0.40;99.90;;;;;;5066826;28;20093;-80
2023/03/08 03:01:11;;;;;;;12.80;5.40;;;0.30;99.90;;;;;;5068893;28;20029;-82
2023/03/08 03:03:36;;;;;;;12.23;5.40;;;0.40;99.90;;;;;;5068576;28;20024;-80
2023/03/08 03:06:02;;;;;;;11.98;5.05;;;0.40;99.90;;;;;;5080147;28;20611;-79
2023/03/08 03:08:29;;;;;;;10.73;5.28;;;0.40;99.90;;;;;;5078060;28;20485;-80
2023/03/08 03:10:55;;;;;;;6.50;5.00;;;0.40;99.90;;;;;;5070883;28;20141;-84
2023/03/08 03:13:20;;;;;;;11.20;4.90;;;0.40;99.90;;;;;;5078236;28;20097;-81
2023/03/08 03:15:46;;;;;;;9.68;5.60;;;0.40;99.90;;;;;;5078495;28;20443;-82
2023/03/08 03:18:11;;;;;;;7.38;4.53;;;0.40;99.90;;;;;;5074378;28;20035;-80
2023/03/08 03:20:37;;;;;;;13.68;7.47;;;0.40;99.90;;;;;;5072964;28;20056;-83
2023/03/08 03:23:02;;;;;;;13.07;7.28;;;0.30;99.90;;;;;;5078468;28;20039;-81
2023/03/08 03:25:28;;;;;;;10.35;4.60;;;0.40;99.90;;;;;;5076150;28;20575;-81
2023/03/08 03:27:54;;;;;;;9.45;4.65;;;0.40;99.90;;;;;;5074136;28;20497;-82
2023/03/08 03:30:20;;;;;;;15.05;5.03;;;0.50;99.90;;;;;;5075713;28;20032;-82
2023/03/08 03:32:46;;;;;;;6.90;4.20;;;0.50;99.90;;;;;;5069828;28;20042;-82
2023/03/08 03:35:11;;;;;;;12.20;4.47;;;0.60;99.90;;;;;;5073246;28;20032;-83
2023/03/08 03:37:37;;;;;;;12.70;4.72;;;0.60;99.90;;;;;;5071682;28;20040;-85
2023/03/08 03:40:03;;;;;;;18.15;6.28;;;0.60;99.90;;;;;;5074877;28;20012;-81
2023/03/08 03:42:29;;;;;;;9.55;5.00;;;0.60;99.90;;;;;;5074870;28;20028;-80
2023/03/08 03:44:54;;;;;;;5.18;4.47;;;0.60;99.90;;;;;;5081860;28;20036;-82
2023/03/08 03:47:20;;;;;;;6.13;4.93;;;0.60;99.90;;;;;;5079072;28;20027;-83
2023/03/08 03:49:46;;;;;;;15.38;5.78;;;0.60;99.90;;;;;;5073895;28;20034;-81
2023/03/08 03:52:11;;;;;;;10.15;5.05;;;0.60;99.90;;;;;;5080937;28;20119;-82
2023/03/08 03:54:36;;;;;;;9.00;4.45;;;0.60;99.90;;;;;;5085210;28;20031;-81
2023/03/08 03:57:02;;;;;;;11.02;5.40;;;0.60;99.90;;;;;;5074448;28;20373;-80
2023/03/08 03:59:28;;;;;;;12.38;5.85;;;0.60;99.90;;;;;;5070458;28;20504;-80
2023/03/08 04:01:53;;;;;;;13.75;7.97;;;0.60;99.90;;;;;;5071811;28;20037;-81
2023/03/08 04:04:19;;;;;;;11.98;5.47;;;0.60;99.90;;;;;;5077157;28;20034;-80
2023/03/08 04:06:45;;;;;;;8.18;5.47;;;0.50;99.90;;;;;;5076507;28;20056;-81
2023/03/08 04:09:15;;;;;;;8.45;4.72;;;0.50;99.90;;;;;;5076815;28;20028;-81
2023/03/08 04:11:41;;;;;;;10.13;4.85;;;0.50;99.90;;;;;;5070341;28;20059;-80
2023/03/08 04:14:07;;;;;;;7.00;5.13;;;0.50;99.90;;;;;;5070271;28;20044;-84
2023/03/08 04:16:35;;;;;;;5.07;3.90;;;0.50;99.90;;;;;;5070313;28;20501;-81
2023/03/08 04:19:04;;;;;;;5.28;4.15;;;0.50;99.90;;;;;;5068805;28;20489;-81
2023/03/08 04:21:30;;;;;;;10.32;5.00;;;0.50;99.90;;;;;;5071233;28;20032;-81
2023/03/08 04:23:56;;;;;;;7.95;4.40;;;0.50;99.90;;;;;;5071478;28;20378;-81
2023/03/08 04:26:22;;;;;;;7.25;5.05;;;0.50;99.90;;;;;;5075600;28;20032;-83
2023/03/08 04:28:48;;;;;;;13.15;5.40;;;0.50;99.90;;;;;;5075304;28;20029;-81
2023/03/08 04:31:16;;;;;;;6.07;4.95;;;0.50;99.90;;;;;;5065106;28;20120;-82
2023/03/08 04:33:43;;;;;;;8.27;5.18;;;0.40;99.90;;;;;;5054405;28;20024;-80
2023/03/08 04:36:09;;;;;;;7.35;4.72;;;0.40;99.90;;;;;;5079121;28;20056;-81
2023/03/08 04:38:35;;;;;;;9.65;5.18;;;0.40;99.90;;;;;;5070198;28;20158;-81
2023/03/08 04:41:01;;;;;;;10.85;6.22;;;0.30;99.90;;;;;;5070009;28;20020;-81
2023/03/08 04:43:33;;;;;;;11.48;5.45;;;0.20;99.90;;;;;;5069471;28;20080;-81
2023/03/08 04:46:00;;;;;;;8.52;5.88;;;0.20;99.90;;;;;;5065912;28;20416;-81
2023/03/08 04:48:25;;;;;;;11.80;6.90;;;0.20;99.90;;;;;;5068292;28;20460;-80
2023/03/08 04:50:53;;;;;;;8.18;6.13;;;0.20;99.90;;;;;;5063864;28;20037;-81
2023/03/08 04:53:18;;;;;;;12.07;6.82;;;0.20;99.90;;;;;;5065388;28;20468;-80
2023/03/08 04:55:44;;;;;;;12.18;7.15;;;0.20;99.90;;;;;;5069270;28;20490;-83
2023/03/08 04:58:09;;;;;;;14.15;8.13;;;0.20;99.90;;;;;;5072974;28;20449;-82
2023/03/08 05:00:35;;;;;;;13.73;8.38;;;0.20;99.90;;;;;;5070874;28;20450;-84
2023/03/08 05:03:00;;;;;;;9.18;6.88;;;0.20;99.90;;;;;;5070563;28;20103;-81
2023/03/08 05:05:26;;;;;;;9.88;6.75;;;0.10;99.90;;;;;;5067553;28;20032;-80
2023/03/08 05:07:52;;;;;;;12.15;6.95;;;0.10;99.90;;;;;;5064909;28;20055;-84
2023/03/08 05:10:17;;;;;;;14.40;7.00;;;0.10;99.90;;;;;;5061739;28;20028;-81
2023/03/08 05:12:43;;;;;;;11.73;7.28;;;0.00;99.90;;;;;;5068300;28;20021;-80
2023/03/08 05:15:09;;;;;;;12.07;6.63;;;0.00;99.90;;;;;;5063882;28;20074;-81
2023/03/08 05:17:35;;;;;;;12.38;7.25;;;-0.10;99.90;;;;;;5059251;28;20027;-80
2023/03/08 05:20:01;;;;;;;12.25;7.18;;;-0.10;99.90;;;;;;5070324;28;20036;-82
2023/03/08 05:22:26;;;;;;;15.10;7.50;;;-0.10;99.90;;;;;;5067121;28;20031;-80
2023/03/08 05:24:52;;;;;;;9.48;7.18;;;-0.20;99.90;;;;;;5065172;28;20057;-82
2023/03/08 05:27:21;;;;;;;14.20;7.78;;;-0.20;99.90;;;;;;5068952;28;20024;-80
2023/03/08 05:29:46;;;;;;;10.85;7.10;;;-0.30;99.90;;;;;;5071652;28;20020;-81
2023/03/08 05:32:12;;;;;;;12.30;7.50;;;-0.30;99.90;;;;;;5066082;28;20401;-82
2023/03/08 05:34:38;;;;;;;20.58;7.53;;;-0.30;99.90;;;;;;5060089;28;20039;-81
2023/03/08 05:37:04;;;;;;;16.60;7.43;;;-0.30;99.90;;;;;;5057658;28;20495;-81
2023/03/08 05:39:29;;;;;;;10.88;7.30;;;-0.20;99.90;;;;;;5066351;28;20051;-81
2023/03/08 05:41:55;;;;;;;11.82;7.72;;;-0.30;99.90;;;;;;5074713;28;20036;-81
2023/03/08 05:44:21;;;;;;;13.18;8.15;;;-0.30;99.90;;;;;;5062989;28;20477;-81
2023/03/08 05:46:53;;;;;;;17.42;9.45;;;-0.30;99.90;;;;;;5054919;28;20029;-82
2023/03/08 05:49:18;;;;;;;35.38;10.70;;;-0.30;99.90;;;;;;5067818;28;20044;-81
2023/03/08 05:51:44;;;;;;;15.27;8.98;;;-0.40;99.90;;;;;;5057249;28;20119;-81
2023/03/08 05:54:09;;;;;;;18.88;10.32;;;-0.40;99.90;;;;;;5057140;28;20029;-81
2023/03/08 05:56:35;;;;;;;18.63;10.77;;;-0.40;99.90;;;;;;5066689;28;20115;-84
2023/03/08 05:59:01;;;;;;;19.13;9.85;;;-0.50;99.90;;;;;;5066624;28;20119;-81
2023/03/08 06:01:27;;;;;;;17.30;9.50;;;-0.50;99.90;;;;;;5074577;28;20020;-81
2023/03/08 06:03:56;;;;;;;16.40;9.73;;;-0.50;99.90;;;;;;5075447;28;20032;-88
2023/03/08 06:06:25;;;;;;;16.65;9.27;;;-0.50;99.90;;;;;;5076411;28;20040;-82
2023/03/08 06:08:50;;;;;;;14.50;9.40;;;-0.60;99.90;;;;;;5076816;28;20744;-81
2023/03/08 06:11:17;;;;;;;15.02;9.50;;;-0.50;99.90;;;;;;5067919;28;20032;-81
2023/03/08 06:13:44;;;;;;;12.23;9.13;;;-0.50;99.90;;;;;;5077488;28;20036;-81
2023/03/08 06:16:10;;;;;;;15.90;8.82;;;-0.50;99.90;;;;;;5063299;28;20035;-81
2023/03/08 06:18:38;;;;;;;13.63;9.38;;;-0.60;99.90;;;;;;5061659;28;20111;-85
2023/03/08 06:21:15;;;;;;;13.80;8.82;;;-0.60;99.90;;;;;;5074544;28;20012;-81
2023/03/08 06:23:42;;;;;;;15.25;9.77;;;-0.60;99.90;;;;;;5068376;28;20020;-81
2023/03/08 06:26:08;;;;;;;18.52;10.98;;;-0.60;99.90;;;;;;5064736;28;20048;-83
2023/03/08 06:28:34;;;;;;;17.33;10.05;;;-0.50;99.90;;;;;;5071146;28;20115;-82
2023/03/08 06:31:01;;;;;;;12.48;9.13;;;-0.50;99.90;;;;;;5066147;28;20033;-82
2023/03/08 06:33:29;;;;;;;21.67;11.63;;;-0.40;99.90;;;;;;5076847;28;20076;-82
2023/03/08 06:35:59;;;;;;;15.75;9.57;;;-0.50;99.90;;;;;;5068409;28;20048;-82
2023/03/08 06:38:26;;;;;;;16.52;10.75;;;-0.40;99.90;;;;;;5065635;28;20021;-82
2023/03/08 06:40:52;;;;;;;17.33;10.43;;;-0.40;99.90;;;;;;5078118;28;20123;-85
2023/03/08 06:43:17;;;;;;;20.70;12.07;;;-0.30;99.90;;;;;;5079952;28;20051;-82
2023/03/08 06:45:43;;;;;;;25.00;12.65;;;-0.30;99.90;;;;;;5077293;28;20044;-82
2023/03/08 06:48:09;;;;;;;25.27;12.35;;;-0.30;99.90;;;;;;5076131;28;20060;-87
2023/03/08 06:50:34;;;;;;;16.30;11.25;;;-0.20;99.90;;;;;;5078012;28;20025;-84
2023/03/08 06:53:00;;;;;;;14.93;10.30;;;-0.20;99.90;;;;;;5075767;28;20389;-82
2023/03/08 06:55:26;;;;;;;26.73;12.27;;;-0.10;99.90;;;;;;5075650;28;20048;-82
2023/03/08 06:57:52;;;;;;;19.30;13.43;;;-0.10;99.90;;;;;;5078777;28;20038;-84
2023/03/08 07:00:18;;;;;;;20.98;13.25;;;-0.10;99.90;;;;;;5076556;28;20035;-82
2023/03/08 07:02:43;;;;;;;22.35;13.02;;;-0.10;99.90;;;;;;5075701;28;20035;-82
2023/03/08 07:05:09;;;;;;;20.67;12.70;;;0.00;99.90;;;;;;5079662;28;20580;-82
2023/03/08 07:07:35;;;;;;;18.20;11.55;;;0.00;99.90;;;;;;5077382;28;20021;-85
2023/03/08 07:10:05;;;;;;;19.42;13.15;;;0.00;99.90;;;;;;5066220;28;20046;-83
2023/03/08 07:12:31;;;;;;;20.45;13.30;;;0.10;99.90;;;;;;5056039;28;20028;-83
2023/03/08 07:14:57;;;;;;;23.42;14.30;;;0.20;99.90;;;;;;5052630;28;20045;-82
2023/03/08 07:17:23;;;;;;;24.77;16.35;;;0.20;99.90;;;;;;5052912;28;20566;-81
2023/03/08 07:19:49;;;;;;;31.98;18.90;;;0.20;99.90;;;;;;5047954;28;20484;-84
2023/03/08 07:22:15;;;;;;;29.42;17.23;;;0.30;99.90;;;;;;5060291;28;20028;-82
2023/03/08 07:24:41;;;;;;;30.88;18.67;;;0.30;99.90;;;;;;5050720;28;20107;-82
2023/03/08 07:27:06;;;;;;;32.33;18.30;;;0.30;99.90;;;;;;5045631;28;20441;-82
2023/03/08 07:29:32;;;;;;;28.33;17.35;;;0.30;99.90;;;;;;5047992;28;20449;-81
2023/03/08 07:31:57;;;;;;;34.60;19.13;;;0.40;99.90;;;;;;5058775;28;20040;-82
2023/03/08 07:34:23;;;;;;;37.25;20.48;;;0.40;99.90;;;;;;5052401;28;20115;-82
2023/03/08 07:36:49;;;;;;;40.95;24.33;;;0.40;99.90;;;;;;5055395;28;20145;-81
2023/03/08 07:39:15;;;;;;;42.38;23.90;;;0.40;99.90;;;;;;5050542;28;20393;-82
2023/03/08 07:41:41;;;;;;;42.92;24.85;;;0.50;99.90;;;;;;5048864;28;20024;-86
2023/03/08 07:44:07;;;;;;;47.83;24.92;;;0.50;99.90;;;;;;5058696;28;20358;-82
2023/03/08 07:46:32;;;;;;;42.90;23.33;;;0.50;99.90;;;;;;5048922;28;20063;-82
2023/03/08 07:48:58;;;;;;;47.00;24.95;;;0.50;99.90;;;;;;5050448;28;20029;-82
2023/03/08 07:51:23;;;;;;;49.40;28.95;;;0.60;99.90;;;;;;5049279;28;20158;-82
2023/03/08 07:53:50;;;;;;;51.70;28.33;;;0.60;99.90;;;;;;5051973;28;20025;-85
2023/03/08 07:56:16;;;;;;;50.28;28.45;;;0.60;99.90;;;;;;5054210;28;20033;-82
2023/03/08 07:58:41;;;;;;;44.00;26.10;;;0.70;99.90;;;;;;5052125;28;20021;-82
2023/03/08 08:01:12;;;;;;;36.10;21.90;;;0.70;99.90;;;;;;5048689;28;20036;-84
2023/03/08 08:03:39;;;;;;;29.88;18.70;;;0.80;99.90;;;;;;5050108;28;20087;-84
2023/03/08 08:06:05;;;;;;;26.98;17.38;;;0.80;99.90;;;;;;5052929;28;20041;-82
2023/03/08 08:08:31;;;;;;;25.83;17.63;;;0.80;99.90;;;;;;5059990;28;20025;-83
2023/03/08 08:10:57;;;;;;;36.58;19.23;;;0.90;99.90;;;;;;5053790;28;20029;-81
2023/03/08 08:13:24;;;;;;;30.63;18.33;;;0.90;99.90;;;;;;5053126;28;20090;-90
2023/03/08 08:15:58;;;;;;;32.40;18.30;;;0.90;99.90;;;;;;5050183;28;20108;-85
2023/03/08 08:18:24;;;;;;;25.05;16.02;;;0.90;99.90;;;;;;5045756;28;20055;-82
2023/03/08 08:20:49;;;;;;;26.88;16.55;;;1.00;99.90;;;;;;5053061;28;20477;-83
2023/03/08 08:23:15;;;;;;;30.50;16.85;;;1.00;99.90;;;;;;5052325;28;20028;-82
2023/03/08 08:25:51;;;;;;;24.65;16.02;;;1.00;99.90;;;;;;5030669;28;20160;-91
2023/03/08 08:28:16;;;;;;;20.65;14.38;;;1.00;99.90;;;;;;5046650;28;20052;-82
2023/03/08 08:30:42;;;;;;;22.50;15.25;;;1.10;99.90;;;;;;5052792;28;20115;-85
2023/03/08 08:33:08;;;;;;;16.88;12.60;;;1.10;99.90;;;;;;5055387;28;20024;-82
2023/03/08 08:35:33;;;;;;;16.95;12.38;;;1.10;99.90;;;;;;5043751;28;20025;-83
2023/03/08 08:37:59;;;;;;;20.23;13.80;;;1.20;99.90;;;;;;5046021;28;20036;-83
2023/03/08 08:40:24;;;;;;;19.17;13.02;;;1.20;99.90;;;;;;5053851;28;20029;-83
2023/03/08 08:42:51;;;;;;;20.15;12.93;;;1.20;99.90;;;;;;5056212;28;20029;-93
2023/03/08 08:45:16;;;;;;;21.63;13.63;;;1.30;99.90;;;;;;5059257;28;20043;-82
2023/03/08 08:47:44;;;;;;;19.60;14.15;;;1.30;99.90;;;;;;5060059;28;20025;-84
2023/03/08 08:50:10;;;;;;;22.52;14.05;;;1.30;99.90;;;;;;5050914;28;20033;-83
2023/03/08 08:52:35;;;;;;;26.38;14.20;;;1.30;99.90;;;;;;5052303;28;20029;-84
2023/03/08 08:55:01;;;;;;;19.30;11.50;;;1.40;99.90;;;;;;5060760;28;20028;-82
2023/03/08 08:57:26;;;;;;;21.63;12.95;;;1.50;99.90;;;;;;5059251;28;20543;-81
2023/03/08 08:59:52;;;;;;;17.58;11.75;;;1.50;99.90;;;;;;5058517;28;20017;-86
2023/03/08 09:02:17;;;;;;;16.33;11.38;;;1.60;99.90;;;;;;5057331;28;20044;-84
2023/03/08 09:04:46;;;;;;;24.02;12.80;;;1.50;99.90;;;;;;5048221;28;20397;-95
2023/03/08 09:07:11;;;;;;;19.90;12.15;;;1.50;99.90;;;;;;5053460;28;20033;-93
2023/03/08 09:09:37;;;;;;;17.83;11.73;;;1.50;99.90;;;;;;5051678;28;20036;-88
2023/03/08 09:12:02;;;;;;;22.60;12.63;;;1.60;99.90;;;;;;5042724;28;20028;-84
2023/03/08 09:14:30;;;;;;;20.02;13.13;;;1.50;99.90;;;;;;5057088;28;20366;-83
2023/03/08 09:16:56;;;;;;;21.75;12.07;;;1.60;99.90;;;;;;5050157;28;20032;-83
2023/03/08 09:19:21;;;;;;;20.77;13.23;;;1.60;99.90;;;;;;5056383;28;20382;-85
2023/03/08 09:21:47;;;;;;;25.48;11.80;;;1.60;99.90;;;;;;5051696;28;20111;-86
2023/03/08 09:24:12;;;;;;;18.77;11.65;;;1.70;99.90;;;;;;5057568;28;20507;-83
2023/03/08 09:26:41;;;;;;;18.08;12.15;;;1.70;99.90;;;;;;5057351;28;20041;-84
2023/03/08 09:29:06;;;;;;;21.48;13.80;;;1.70;99.90;;;;;;5037359;28;20039;-84
2023/03/08 09:31:35;;;;;;;22.77;12.95;;;1.80;99.90;;;;;;5052723;28;20048;-82
2023/03/08 09:34:03;;;;;;;20.13;13.82;;;1.80;99.90;;;;;;5050932;28;20033;-82
2023/03/08 09:36:29;;;;;;;31.00;16.45;;;1.80;99.90;;;;;;5048872;28;20099;-82
2023/03/08 09:38:55;;;;;;;21.67;14.15;;;1.80;99.90;;;;;;5047852;28;20564;-83
2023/03/08 09:41:29;;;;;;;20.08;13.98;;;1.80;99.90;;;;;;5048018;28;20033;-85
2023/03/08 09:44:13;;;;;;;21.92;13.13;;;1.90;99.90;;;;;;5045466;28;20064;-85
2023/03/08 09:46:47;;;;;;;18.42;12.02;;;1.90;99.90;;;;;;5046626;28;20904;-83
2023/03/08 09:49:18;;;;;;;20.67;12.27;;;1.90;99.90;;;;;;5046258;28;20111;-83
2023/03/08 09:51:47;;;;;;;16.75;11.98;;;1.90;99.90;;;;;;5049008;28;20021;-83
2023/03/08 09:54:18;;;;;;;15.95;11.02;;;1.90;99.90;;;;;;5054357;28;20067;-84
2023/03/08 09:56:50;;;;;;;17.27;10.77;;;1.90;99.90;;;;;;5046854;28;20405;-84
2023/03/08 09:59:32;;;;;;;15.52;10.80;;;1.90;99.90;;;;;;5067648;28;20141;-84
2023/03/08 10:02:05;;;;;;;16.38;10.13;;;1.90;99.90;;;;;;5056107;28;20024;-84
2023/03/08 10:05:05;;;;;;;16.80;10.73;;;1.90;99.90;;;;;;5052878;28;20040;-85
2023/03/08 10:07:39;;;;;;;16.80;9.95;;;1.90;99.90;;;;;;5055264;28;20017;-87
2023/03/08 10:10:49;;;;;;;14.98;8.95;;;1.90;99.90;;;;;;5043629;28;20276;-84
2023/03/08 10:13:34;;;;;;;12.63;8.27;;;1.80;99.90;;;;;;5017155;28;20401;-88
2023/03/08 10:16:15;;;;;;;10.30;7.95;;;1.80;99.90;;;;;;5042002;28;20029;-86
2023/03/08 10:18:46;;;;;;;8.77;6.00;;;1.80;99.90;;;;;;5037210;28;20330;-85
2023/03/08 10:21:16;;;;;;;7.75;5.90;;;1.80;99.90;;;;;;5041257;28;20043;-85
2023/03/08 10:23:45;;;;;;;9.50;6.10;;;1.80;99.90;;;;;;5045243;28;20107;-86
2023/03/08 10:26:14;;;;;;;10.32;5.60;;;1.80;99.90;;;;;;5041159;28;20128;-85
2023/03/08 10:28:40;;;;;;;6.18;5.05;;;1.70;99.90;;;;;;5049666;28;20497;-84
2023/03/08 10:31:20;;;;;;;6.60;4.70;;;1.70;99.90;;;;;;5056206;28;20041;-85
2023/03/08 10:33:50;;;;;;;8.93;5.78;;;1.70;99.90;;;;;;5055015;28;20118;-85
2023/03/08 10:36:24;;;;;;;6.53;5.00;;;1.70;99.90;;;;;;5055029;28;20029;-84
2023/03/08 10:39:08;;;;;;;7.47;4.57;;;1.70;99.90;;;;;;5058041;28;20363;-86
2023/03/08 10:41:43;;;;;;;5.38;4.57;;;1.70;99.90;;;;;;5060486;28;20028;-85
2023/03/08 10:44:14;;;;;;;7.97;5.15;;;1.70;99.90;;;;;;5043934;28;20040;-85
2023/03/08 10:47:18;;;;;;;6.20;4.60;;;1.70;99.90;;;;;;5060454;28;20041;-85
2023/03/08 10:49:47;;;;;;;4.82;4.07;;;1.70;99.90;;;;;;5049997;28;20029;-90
2023/03/08 10:52:26;;;;;;;7.82;4.32;;;1.60;99.90;;;;;;5041696;28;20049;-84
2023/03/08 10:55:13;;;;;;;7.07;5.15;;;1.60;99.90;;;;;;5045292;28;20032;-86
2023/03/08 10:57:44;;;;;;;7.20;5.07;;;1.60;99.90;;;;;;5060573;28;20079;-86
2023/03/08 11:00:19;;;;;;;6.03;4.63;;;1.60;99.90;;;;;;5048322;28;20036;-88
2023/03/08 11:02:47;;;;;;;5.22;3.30;;;1.60;99.90;;;;;;5049490;28;20040;-85
2023/03/08 11:05:27;;;;;;;2.42;2.22;;;1.60;99.90;;;;;;5057307;28;20036;-85
2023/03/08 11:07:56;;;;;;;2.20;2.00;;;1.60;99.90;;;;;;5058448;28;20029;-85
2023/03/08 11:10:24;;;;;;;2.50;2.20;;;1.60;99.90;;;;;;5059437;28;20055;-84
2023/03/08 11:13:24;;;;;;;2.47;2.00;;;1.60;99.90;;;;;;5057171;28;20041;-86
2023/03/08 11:16:03;;;;;;;6.88;4.20;;;1.50;99.90;;;;;;5053113;28;20033;-85
2023/03/08 11:18:50;;;;;;;10.07;5.85;;;1.50;99.90;;;;;;5059767;28;20055;-85
2023/03/08 11:21:28;;;;;;;7.18;5.47;;;1.50;99.90;;;;;;5055312;28;20037;-84
2023/03/08 11:24:17;;;;;;;11.00;6.65;;;1.60;99.90;;;;;;5051249;28;20035;-85
2023/03/08 11:27:03;;;;;;;8.30;5.95;;;1.60;99.90;;;;;;5051105;28;20143;-85
2023/03/08 11:29:47;;;;;;;;;;;1.50;99.90;;;;;;5052161;28;20124;-84
2023/03/08 11:32:48;;;;;;;8.80;5.40;;;1.50;99.90;;;;;;5061298;28;19962;-84
2023/03/08 11:35:21;;;;;;;7.55;4.63;;;1.50;99.90;;;;;;5051326;28;20043;-84
2023/03/08 11:38:16;;;;;;;7.60;4.35;;;1.50;99.90;;;;;;5061852;28;20542;-85
2023/03/08 11:41:11;;;;;;;7.73;4.67;;;1.50;99.90;;;;;;5059042;28;20025;-85
2023/03/08 11:44:07;;;;;;;6.82;3.50;;;1.50;99.90;;;;;;5060955;28;20035;-85
2023/03/08 11:46:51;;;;;;;6.35;3.45;;;1.50;99.90;;;;;;5054652;28;20041;-84
2023/03/08 11:49:43;;;;;;;5.75;3.70;;;1.50;99.90;;;;;;5048471;28;20473;-85
2023/03/08 11:52:32;;;;;;;10.43;5.85;;;1.50;99.90;;;;;;5022726;28;20102;-84
2023/03/08 11:55:20;;;;;;;9.05;5.32;;;1.40;99.90;;;;;;5040417;28;20048;-84
2023/03/08 11:57:54;;;;;;;9.38;4.32;;;1.40;99.90;;;;;;5058237;28;20021;-85
2023/03/08 12:00:29;;;;;;;4.47;3.20;;;1.40;99.90;;;;;;5055036;28;20020;-85
2023/03/08 12:02:59;;;;;;;6.57;4.07;;;1.40;99.90;;;;;;5054084;28;20067;-84
2023/03/08 12:05:25;;;;;;;4.32;3.00;;;1.40;99.90;;;;;;5063337;28;20068;-85
2023/03/08 12:08:01;;;;;;;4.63;2.58;;;1.40;99.90;;;;;;5058848;28;20025;-85
2023/03/08 12:10:28;;;;;;;;;;;1.40;99.90;;;;;;5035117;28;20120;-84
2023/03/08 12:12:59;;;;;;;9.93;3.00;;;1.30;99.90;;;;;;5042764;28;19959;-87
2023/03/08 12:15:38;;;;;;;5.35;3.13;;;1.30;99.90;;;;;;5045212;28;20025;-84
2023/03/08 12:18:19;;;;;;;3.58;2.90;;;1.30;99.90;;;;;;5055782;28;20029;-84
2023/03/08 12:20:45;;;;;;;5.85;4.30;;;1.30;99.90;;;;;;5051164;28;20115;-85
2023/03/08 12:23:19;;;;;;;6.60;4.35;;;1.40;99.90;;;;;;5035229;28;20502;-85
2023/03/08 12:25:49;;;;;;;7.65;4.38;;;1.40;99.90;;;;;;5050416;28;20049;-85
2023/03/08 12:28:30;;;;;;;11.05;5.63;;;1.40;99.90;;;;;;5063594;28;20087;-84
2023/03/08 12:31:37;;;;;;;11.02;6.47;;;1.50;99.90;;;;;;5055244;28;20059;-84
2023/03/08 12:34:26;;;;;;;10.27;5.65;;;1.50;99.90;;;;;;5050680;28;20390;-84
2023/03/08 12:36:53;;;;;;;13.95;5.53;;;1.50;99.90;;;;;;5061609;28;20284;-85
2023/03/08 12:39:33;;;;;;;6.60;4.18;;;1.50;99.90;;;;;;5041093;28;20429;-84
2023/03/08 12:42:14;;;;;;;8.50;4.00;;;1.50;99.90;;;;;;5042985;28;20405;-85
2023/03/08 12:44:41;;;;;;;16.38;7.32;;;1.50;99.90;;;;;;5055491;28;20047;-85
2023/03/08 12:47:27;;;;;;;16.45;8.40;;;1.50;99.90;;;;;;5045900;28;20032;-85
2023/03/08 12:49:55;;;;;;;10.68;7.00;;;1.50;99.90;;;;;;5046831;28;20048;-85
2023/03/08 12:52:33;;;;;;;10.30;6.05;;;1.50;99.90;;;;;;5055335;28;20036;-85
2023/03/08 12:55:17;;;;;;;7.97;5.38;;;1.60;99.90;;;;;;5044720;28;20102;-84
2023/03/08 12:57:54;;;;;;;8.93;5.38;;;1.60;99.90;;;;;;5054374;28;20553;-83
2023/03/08 13:00:34;;;;;;;6.65;5.15;;;1.50;99.90;;;;;;5046484;28;20029;-86